createdAt,value
2019-01-20T00:00:22.394Z,7.2
2019-01-20T00:01:31.185Z,7
2019-01-20T00:02:32.835Z,7.4
2019-01-20T00:03:34.483Z,7.7
2019-01-20T00:04:36.125Z,7.4
2019-01-20T00:05:37.763Z,7.4
2019-01-20T00:06:39.409Z,7
2019-01-20T00:07:43.312Z,7.1
2019-01-20T00:08:44.950Z,7.1
2019-01-20T00:09:46.902Z,6.9
2019-01-20T00:10:48.521Z,6.8
2019-01-20T00:11:50.107Z,6.8
2019-01-20T00:12:51.734Z,6.6
2019-01-20T00:13:53.389Z,6.5
2019-01-20T00:14:59.343Z,6.3
2019-01-20T00:16:03.484Z,6.3
2019-01-20T00:17:05.077Z,6.3
2019-01-20T00:18:08.154Z,6.1
2019-01-20T00:19:09.879Z,5.9
2019-01-20T00:20:11.724Z,5.9
2019-01-20T00:21:14.490Z,5.8
2019-01-20T00:22:15.975Z,5.7
2019-01-20T00:23:18.099Z,5.7
2019-01-20T00:24:19.667Z,5.8
2019-01-20T00:25:21.142Z,5.5
2019-01-20T00:26:22.918Z,5.4
2019-01-20T00:27:24.443Z,5.2
2019-01-20T00:28:25.895Z,5.3
2019-01-20T00:29:27.696Z,5.3
2019-01-20T00:30:29.679Z,5.2
2019-01-20T00:31:31.271Z,5.2
2019-01-20T00:32:32.726Z,5.1
2019-01-20T00:33:34.203Z,5.2
2019-01-20T00:34:35.712Z,5.1
2019-01-20T00:35:37.165Z,5
2019-01-20T00:36:38.601Z,5.2
2019-01-20T00:37:40.095Z,5
2019-01-20T00:38:41.589Z,5
2019-01-20T00:39:45.379Z,4.9
2019-01-20T00:40:46.838Z,4.8
2019-01-20T00:41:48.414Z,4.7
2019-01-20T00:42:49.887Z,4.7
2019-01-20T00:43:51.329Z,4.6
2019-01-20T00:44:52.838Z,4.5
2019-01-20T00:45:54.284Z,4.4
2019-01-20T00:46:55.736Z,4.6
2019-01-20T00:47:57.200Z,4.4
2019-01-20T00:48:58.649Z,4.4
2019-01-20T00:50:07.323Z,4.3
2019-01-20T00:51:09.296Z,4.3
2019-01-20T00:52:10.737Z,4.3
2019-01-20T00:53:12.178Z,4.3
2019-01-20T00:54:13.634Z,4.1
2019-01-20T00:55:15.723Z,4
2019-01-20T00:56:18.853Z,4.2
2019-01-20T00:57:20.603Z,4.2
2019-01-20T00:58:22.051Z,4
2019-01-20T00:59:23.486Z,4
2019-01-20T01:00:24.966Z,4.1
2019-01-20T01:01:26.445Z,4
2019-01-20T01:02:27.921Z,3.8
2019-01-20T01:03:29.373Z,3.8
2019-01-20T01:04:30.838Z,3.7
2019-01-20T01:05:36.477Z,3.8
2019-01-20T01:06:37.949Z,3.8
2019-01-20T01:07:40.178Z,3.6
2019-01-20T01:08:41.794Z,3.6
2019-01-20T01:09:43.267Z,3.5
2019-01-20T01:10:44.811Z,3.5
2019-01-20T01:11:48.660Z,3.5
2019-01-20T01:12:50.108Z,3.5
2019-01-20T01:13:51.623Z,3.5
2019-01-20T01:14:53.103Z,3.4
2019-01-20T01:15:54.835Z,3.3
2019-01-20T01:16:57.299Z,3.2
2019-01-20T01:17:59.297Z,3.1
2019-01-20T01:19:00.747Z,3.3
2019-01-20T01:20:02.189Z,3.2
2019-01-20T01:21:03.671Z,3.2
2019-01-20T01:22:05.115Z,3.1
2019-01-20T01:23:06.590Z,3.2
2019-01-20T01:24:08.032Z,3.2
2019-01-20T01:25:09.498Z,3.1
2019-01-20T01:26:11.047Z,3
2019-01-20T01:27:12.518Z,3
2019-01-20T01:28:13.967Z,2.9
2019-01-20T01:29:15.418Z,3
2019-01-20T01:30:16.926Z,2.9
2019-01-20T01:31:18.430Z,2.9
2019-01-20T01:32:23.928Z,2.9
2019-01-20T01:33:25.362Z,3
2019-01-20T01:34:26.799Z,3
2019-01-20T01:35:30.352Z,2.9
2019-01-20T01:36:34.187Z,2.8
2019-01-20T01:37:35.631Z,2.7
2019-01-20T01:38:37.101Z,2.7
2019-01-20T01:39:38.608Z,2.6
2019-01-20T01:40:42.559Z,2.6
2019-01-20T01:41:46.496Z,2.5
2019-01-20T01:42:48.037Z,2.5
2019-01-20T01:43:49.691Z,2.5
2019-01-20T01:44:51.330Z,2.4
2019-01-20T01:45:52.973Z,2.5
2019-01-20T01:46:54.608Z,2.4
2019-01-20T01:47:56.264Z,2.2
2019-01-20T01:48:57.909Z,2.5
2019-01-20T01:49:59.552Z,2.5
2019-01-20T01:51:01.093Z,2.6
2019-01-20T01:52:02.644Z,2.5
2019-01-20T01:53:04.278Z,2.4
2019-01-20T01:54:08.658Z,2.4
2019-01-20T01:55:10.242Z,2.3
2019-01-20T01:56:11.886Z,2.2
2019-01-20T01:57:13.526Z,2.4
2019-01-20T01:58:15.174Z,2.3
2019-01-20T01:59:16.814Z,2.3
2019-01-20T02:00:18.474Z,2.5
2019-01-20T02:01:20.108Z,2.5
2019-01-20T02:02:21.757Z,2.5
2019-01-20T02:03:23.398Z,2.3
2019-01-20T02:04:25.049Z,2.3
2019-01-20T02:05:26.690Z,2.1
2019-01-20T02:06:28.352Z,2
2019-01-20T02:07:29.982Z,2.1
2019-01-20T02:08:31.622Z,2
2019-01-20T02:09:34.088Z,2
2019-01-20T02:10:37.776Z,1.9
2019-01-20T02:11:46.562Z,1.9
2019-01-20T02:12:48.406Z,1.9
2019-01-20T02:13:49.866Z,2
2019-01-20T02:14:51.425Z,2
2019-01-20T02:15:52.973Z,2.1
2019-01-20T02:16:54.610Z,2
2019-01-20T02:17:56.265Z,1.9
2019-01-20T02:18:57.909Z,2
2019-01-20T02:19:59.546Z,2.1
2019-01-20T02:21:01.399Z,2.2
2019-01-20T02:22:02.998Z,2
2019-01-20T02:23:04.557Z,2.2
2019-01-20T02:24:05.998Z,2.1
2019-01-20T02:25:07.444Z,2
2019-01-20T02:26:08.902Z,2
2019-01-20T02:27:10.351Z,2.1
2019-01-20T02:28:11.877Z,2
2019-01-20T02:29:13.637Z,2
2019-01-20T02:30:17.267Z,1.9
2019-01-20T02:31:18.742Z,1.9
2019-01-20T02:32:20.184Z,2
2019-01-20T02:33:21.702Z,2
2019-01-20T02:34:23.159Z,2
2019-01-20T02:35:24.703Z,1.9
2019-01-20T02:36:26.170Z,2
2019-01-20T02:37:27.625Z,2
2019-01-20T02:38:29.107Z,1.9
2019-01-20T02:39:31.645Z,1.8
2019-01-20T02:40:33.356Z,1.9
2019-01-20T02:41:34.807Z,1.9
2019-01-20T02:42:36.355Z,1.9
2019-01-20T02:43:37.997Z,1.8
2019-01-20T02:44:39.462Z,1.7
2019-01-20T02:45:40.948Z,1.7
2019-01-20T02:46:42.419Z,1.7
2019-01-20T02:47:43.873Z,1.7
2019-01-20T02:48:45.675Z,1.6
2019-01-20T02:49:47.154Z,1.6
2019-01-20T02:50:49.610Z,1.5
2019-01-20T02:51:51.051Z,1.6
2019-01-20T02:52:52.507Z,1.7
2019-01-20T02:53:54.030Z,1.5
2019-01-20T02:54:55.481Z,1.6
2019-01-20T02:55:56.937Z,1.5
2019-01-20T02:56:58.463Z,1.7
2019-01-20T02:58:01.870Z,1.7
2019-01-20T02:59:03.699Z,1.9
2019-01-20T03:00:05.367Z,1.7
2019-01-20T03:01:07.343Z,1.5
2019-01-20T03:02:08.837Z,1.5
2019-01-20T03:03:10.498Z,1.3
2019-01-20T03:04:12.128Z,1.4
2019-01-20T03:05:13.769Z,1.3
2019-01-20T03:06:15.429Z,1.3
2019-01-20T03:07:16.973Z,1.4
2019-01-20T03:08:18.454Z,1.3
2019-01-20T03:09:19.954Z,1.1
2019-01-20T03:10:21.723Z,1.1
2019-01-20T03:11:23.187Z,1.2
2019-01-20T03:12:24.693Z,1.2
2019-01-20T03:13:26.183Z,1.1
2019-01-20T03:14:27.722Z,1.1
2019-01-20T03:15:29.330Z,1.2
2019-01-20T03:16:30.902Z,1.5
2019-01-20T03:17:32.358Z,1.5
2019-01-20T03:18:33.836Z,1.6
2019-01-20T03:19:35.335Z,1.5
2019-01-20T03:20:36.802Z,1.6
2019-01-20T03:21:38.245Z,1.7
2019-01-20T03:22:39.700Z,1.4
2019-01-20T03:23:41.555Z,1.4
2019-01-20T03:24:43.799Z,1.4
2019-01-20T03:25:45.288Z,1.2
2019-01-20T03:26:46.729Z,1.3
2019-01-20T03:27:48.188Z,1.3
2019-01-20T03:28:49.639Z,1.2
2019-01-20T03:29:51.162Z,1
2019-01-20T03:30:52.703Z,1.3
2019-01-20T03:31:54.181Z,1.2
2019-01-20T03:32:55.635Z,1.2
2019-01-20T03:33:57.081Z,1.2
2019-01-20T03:34:58.613Z,1.3
2019-01-20T03:36:00.252Z,1.3
2019-01-20T03:37:01.905Z,1.5
2019-01-20T03:38:03.549Z,1.4
2019-01-20T03:39:07.484Z,1.3
2019-01-20T03:40:09.081Z,1.2
2019-01-20T03:41:10.737Z,1.1
2019-01-20T03:42:12.425Z,1.5
2019-01-20T03:43:14.024Z,1.4
2019-01-20T03:44:15.683Z,1.1
2019-01-20T03:45:17.327Z,1.3
2019-01-20T03:46:20.041Z,1
2019-01-20T03:47:21.529Z,1
2019-01-20T03:48:23.178Z,1
2019-01-20T03:49:24.806Z,1
2019-01-20T03:50:26.358Z,0.9
2019-01-20T03:51:27.810Z,1
2019-01-20T03:52:29.450Z,1
2019-01-20T03:53:31.088Z,0.9
2019-01-20T03:54:32.627Z,1.1
2019-01-20T03:55:34.122Z,1
2019-01-20T03:56:35.590Z,0.7
2019-01-20T03:57:37.061Z,0.7
2019-01-20T03:58:38.519Z,0.6
2019-01-20T03:59:39.970Z,0.5
2019-01-20T04:00:41.581Z,0.4
2019-01-20T04:01:43.222Z,0.2
2019-01-20T04:02:44.868Z,0.3
2019-01-20T04:03:46.516Z,0.3
2019-01-20T04:04:48.172Z,0.2
2019-01-20T04:05:49.806Z,0.5
2019-01-20T04:06:51.446Z,0.4
2019-01-20T04:07:53.302Z,0.3
2019-01-20T04:08:54.942Z,0.4
2019-01-20T04:09:56.594Z,0.4
2019-01-20T04:10:58.234Z,0.5
2019-01-20T04:11:59.878Z,0.3
2019-01-20T04:13:01.525Z,0.1
2019-01-20T04:14:03.174Z,0.1
2019-01-20T04:15:04.812Z,0.2
2019-01-20T04:16:06.461Z,0.1
2019-01-20T04:17:08.116Z,0
2019-01-20T04:18:10.773Z,0
2019-01-20T04:19:13.442Z,0
2019-01-20T04:20:15.084Z,-0.1
2019-01-20T04:21:16.742Z,0.1
2019-01-20T04:22:18.384Z,0.1
2019-01-20T04:23:20.021Z,0.2
2019-01-20T04:24:21.974Z,0.5
2019-01-20T04:25:23.523Z,0.2
2019-01-20T04:26:25.166Z,0.2
2019-01-20T04:27:26.818Z,0.2
2019-01-20T04:28:28.460Z,0.1
2019-01-20T04:29:30.099Z,0.2
2019-01-20T04:30:31.741Z,0.3
2019-01-20T04:31:33.394Z,0.2
2019-01-20T04:32:35.036Z,0.1
2019-01-20T04:33:36.677Z,0.1
2019-01-20T04:34:38.322Z,-0.1
2019-01-20T04:35:39.970Z,-0.1
2019-01-20T04:36:41.606Z,-0.1
2019-01-20T04:37:43.160Z,-0.1
2019-01-20T04:38:45.927Z,0.3
2019-01-20T04:39:47.574Z,0.9
2019-01-20T04:40:49.124Z,0.9
2019-01-20T04:41:50.664Z,0.8
2019-01-20T04:42:52.197Z,0.8
2019-01-20T04:43:53.643Z,0.7
2019-01-20T04:44:55.124Z,0.6
2019-01-20T04:45:56.606Z,0.7
2019-01-20T04:46:58.134Z,0.5
2019-01-20T04:47:59.627Z,0.5
2019-01-20T04:49:01.104Z,0.4
2019-01-20T04:50:02.576Z,0.4
2019-01-20T04:51:04.502Z,0.7
2019-01-20T04:52:05.985Z,0.9
2019-01-20T04:53:08.552Z,0.9
2019-01-20T04:54:12.773Z,0.7
2019-01-20T04:55:15.473Z,1
2019-01-20T04:56:16.945Z,1.3
2019-01-20T04:57:18.737Z,1
2019-01-20T04:58:20.203Z,0.6
2019-01-20T04:59:21.652Z,0.8
2019-01-20T05:00:25.631Z,1.1
2019-01-20T05:01:27.117Z,0.7
2019-01-20T05:02:28.641Z,0.9
2019-01-20T05:03:30.100Z,0.7
2019-01-20T05:04:31.923Z,0.7
2019-01-20T05:05:33.373Z,0.5
2019-01-20T05:06:34.853Z,0.9
2019-01-20T05:07:36.519Z,0.8
2019-01-20T05:08:38.146Z,0.9
2019-01-20T05:09:43.355Z,0.7
2019-01-20T05:10:47.379Z,0.8
2019-01-20T05:11:51.700Z,0.8
2019-01-20T05:12:54.243Z,0.7
2019-01-20T05:13:55.889Z,0.4
2019-01-20T05:14:58.553Z,0.5
2019-01-20T05:16:00.003Z,0.6
2019-01-20T05:17:01.455Z,0.6
2019-01-20T05:18:02.985Z,0.2
2019-01-20T05:19:04.459Z,0.3
2019-01-20T05:20:05.926Z,0.3
2019-01-20T05:21:07.390Z,0.4
2019-01-20T05:22:08.854Z,0.6
2019-01-20T05:23:10.342Z,0.3
2019-01-20T05:24:11.841Z,0.3
2019-01-20T05:25:13.321Z,0.3
2019-01-20T05:26:14.775Z,0.5
2019-01-20T05:27:16.225Z,1
2019-01-20T05:28:17.705Z,0.4
2019-01-20T05:29:19.159Z,0.6
2019-01-20T05:30:20.622Z,0.4
2019-01-20T05:31:22.077Z,0.6
2019-01-20T05:32:23.539Z,0.6
2019-01-20T05:33:25.040Z,0.5
2019-01-20T05:34:26.481Z,0.8
2019-01-20T05:35:27.929Z,0.2
2019-01-20T05:36:29.375Z,0.5
2019-01-20T05:37:30.817Z,0.6
2019-01-20T05:38:32.315Z,0.3
2019-01-20T05:39:33.768Z,0.1
2019-01-20T05:40:35.220Z,0
2019-01-20T05:41:36.689Z,0
2019-01-20T05:42:45.559Z,-0.1
2019-01-20T05:43:47.897Z,0.1
2019-01-20T05:44:49.442Z,0.2
2019-01-20T05:45:51.098Z,0.3
2019-01-20T05:46:52.737Z,0.3
2019-01-20T05:47:55.402Z,0.1
2019-01-20T05:48:57.922Z,0
2019-01-20T05:49:59.394Z,0.2
2019-01-20T05:51:00.897Z,0
2019-01-20T05:52:02.352Z,0.1
2019-01-20T05:53:03.788Z,-0.1
2019-01-20T05:54:05.316Z,-0.2
2019-01-20T05:55:06.765Z,0
2019-01-20T05:56:08.215Z,-0.1
2019-01-20T05:57:09.650Z,-0.3
2019-01-20T05:58:11.082Z,-0.3
2019-01-20T05:59:12.588Z,-0.3
2019-01-20T06:00:14.121Z,-0.3
2019-01-20T06:01:15.766Z,-0.6
2019-01-20T06:02:17.406Z,-0.6
2019-01-20T06:03:19.058Z,-0.5
2019-01-20T06:04:20.690Z,-0.4
2019-01-20T06:05:22.347Z,-0.4
2019-01-20T06:06:23.910Z,-0.4
2019-01-20T06:07:25.380Z,-0.7
2019-01-20T06:08:26.828Z,-0.7
2019-01-20T06:09:28.356Z,-0.6
2019-01-20T06:10:29.850Z,-0.9
2019-01-20T06:11:31.661Z,-0.6
2019-01-20T06:12:33.128Z,-0.6
2019-01-20T06:13:34.589Z,-0.7
2019-01-20T06:14:36.088Z,-0.8
2019-01-20T06:15:37.540Z,-0.8
2019-01-20T06:16:40.252Z,-0.6
2019-01-20T06:17:43.588Z,-0.6
2019-01-20T06:18:45.165Z,-0.6
2019-01-20T06:19:46.803Z,-0.6
2019-01-20T06:20:48.446Z,-0.5
2019-01-20T06:21:50.102Z,-0.4
2019-01-20T06:22:51.748Z,-0.5
2019-01-20T06:23:53.388Z,-0.3
2019-01-20T06:24:55.238Z,-0.1
2019-01-20T06:25:58.217Z,-0.2
2019-01-20T06:26:59.762Z,-0.2
2019-01-20T06:28:01.403Z,-0.1
2019-01-20T06:29:03.045Z,-0.2
2019-01-20T06:30:04.690Z,0.1
2019-01-20T06:31:06.356Z,0.1
2019-01-20T06:32:07.988Z,-0.1
2019-01-20T06:33:09.626Z,-0.1
2019-01-20T06:34:11.272Z,-0.2
2019-01-20T06:35:12.930Z,-0.5
2019-01-20T06:36:14.561Z,-0.4
2019-01-20T06:37:16.219Z,-0.5
2019-01-20T06:38:17.853Z,-0.5
2019-01-20T06:39:19.711Z,-0.6
2019-01-20T06:40:21.356Z,-0.4
2019-01-20T06:41:23.013Z,-0.5
2019-01-20T06:42:24.634Z,-0.4
2019-01-20T06:43:26.292Z,-0.4
2019-01-20T06:44:27.819Z,-0.5
2019-01-20T06:45:29.366Z,-0.5
2019-01-20T06:46:31.371Z,-0.5
2019-01-20T06:47:33.062Z,-0.5
2019-01-20T06:48:34.716Z,-0.4
2019-01-20T06:49:36.361Z,-0.4
2019-01-20T06:50:37.943Z,-0.5
2019-01-20T06:51:39.406Z,-0.6
2019-01-20T06:52:40.884Z,-0.7
2019-01-20T06:53:42.529Z,-0.6
2019-01-20T06:54:44.177Z,-0.4
2019-01-20T06:55:45.763Z,-0.3
2019-01-20T06:56:47.212Z,0
2019-01-20T06:57:51.061Z,-0.1
2019-01-20T06:58:52.591Z,0.5
2019-01-20T06:59:54.243Z,0.2
2019-01-20T07:00:56.385Z,0
2019-01-20T07:01:57.857Z,0
2019-01-20T07:02:59.381Z,0.3
2019-01-20T07:04:01.901Z,0.5
2019-01-20T07:05:03.395Z,-0.2
2019-01-20T07:06:04.910Z,-0.3
2019-01-20T07:07:06.357Z,0.3
2019-01-20T07:08:07.816Z,0.6
2019-01-20T07:09:09.289Z,0.6
2019-01-20T07:10:10.725Z,0.9
2019-01-20T07:11:12.415Z,0.5
2019-01-20T07:12:13.884Z,0.2
2019-01-20T07:13:15.439Z,0
2019-01-20T07:14:17.068Z,0
2019-01-20T07:15:18.709Z,0.1
2019-01-20T07:16:20.365Z,0.1
2019-01-20T07:17:21.993Z,0.1
2019-01-20T07:18:23.645Z,0.1
2019-01-20T07:19:25.294Z,0.3
2019-01-20T07:20:26.937Z,0.6
2019-01-20T07:21:28.583Z,0.5
2019-01-20T07:22:30.231Z,0.4
2019-01-20T07:23:31.874Z,0.2
2019-01-20T07:24:33.434Z,0
2019-01-20T07:25:36.871Z,0.3
2019-01-20T07:26:38.450Z,0
2019-01-20T07:27:40.089Z,-0.1
2019-01-20T07:28:41.739Z,0.2
2019-01-20T07:29:43.379Z,0.1
2019-01-20T07:30:45.023Z,-0.2
2019-01-20T07:31:46.595Z,-0.3
2019-01-20T07:32:48.033Z,-0.3
2019-01-20T07:33:49.551Z,-0.4
2019-01-20T07:34:51.165Z,-0.2
2019-01-20T07:35:52.853Z,-0.1
2019-01-20T07:36:55.302Z,-0.2
2019-01-20T07:37:57.095Z,-0.4
2019-01-20T07:38:58.542Z,-0.2
2019-01-20T07:40:00.286Z,0.1
2019-01-20T07:41:02.038Z,-0.2
2019-01-20T07:42:03.783Z,0.1
2019-01-20T07:43:07.617Z,-0.1
2019-01-20T07:44:11.182Z,-0.1
2019-01-20T07:45:12.637Z,0
2019-01-20T07:46:14.431Z,-0.1
2019-01-20T07:47:18.321Z,-0.2
2019-01-20T07:48:19.789Z,-0.4
2019-01-20T07:49:22.312Z,-0.6
2019-01-20T07:50:23.781Z,-0.5
2019-01-20T07:51:26.291Z,-0.3
2019-01-20T07:52:30.669Z,-0.1
2019-01-20T07:53:32.193Z,0
2019-01-20T07:54:34.741Z,0
2019-01-20T07:55:37.195Z,0.2
2019-01-20T07:56:38.649Z,0.6
2019-01-20T07:57:40.181Z,0.4
2019-01-20T07:58:41.670Z,0.3
2019-01-20T07:59:43.137Z,0.3
2019-01-20T08:00:44.586Z,0.6
2019-01-20T08:01:46.034Z,0.6
2019-01-20T08:02:47.604Z,0.4
2019-01-20T08:03:49.052Z,0.3
2019-01-20T08:04:50.490Z,0.3
2019-01-20T08:05:51.968Z,0.2
2019-01-20T08:06:53.422Z,0.4
2019-01-20T08:07:54.968Z,0.5
2019-01-20T08:08:56.812Z,0.4
2019-01-20T08:09:58.245Z,0.3
2019-01-20T08:10:59.716Z,0.4
2019-01-20T08:12:01.179Z,0.4
2019-01-20T08:13:03.741Z,0.4
2019-01-20T08:14:05.276Z,0.3
2019-01-20T08:15:06.732Z,0.3
2019-01-20T08:16:08.320Z,0.4
2019-01-20T08:17:12.050Z,0.5
2019-01-20T08:18:13.521Z,0.5
2019-01-20T08:19:15.058Z,0.6
2019-01-20T08:20:16.496Z,0.7
2019-01-20T08:21:17.936Z,0.5
2019-01-20T08:22:19.486Z,0.5
2019-01-20T08:23:21.138Z,0.6
2019-01-20T08:24:22.664Z,0.6
2019-01-20T08:25:24.327Z,0.6
2019-01-20T08:26:26.879Z,0.7
2019-01-20T08:27:29.138Z,0.6
2019-01-20T08:28:33.602Z,0.5
2019-01-20T08:29:37.242Z,0.6
2019-01-20T08:30:38.896Z,0.5
2019-01-20T08:31:40.433Z,0.5
2019-01-20T08:32:41.979Z,0.4
2019-01-20T08:33:43.621Z,0.6
2019-01-20T08:34:45.060Z,0.7
2019-01-20T08:35:46.580Z,0.6
2019-01-20T08:36:48.325Z,0.6
2019-01-20T08:37:49.788Z,0.5
2019-01-20T08:38:51.358Z,0.6
2019-01-20T08:39:52.877Z,1
2019-01-20T08:40:55.380Z,1
2019-01-20T08:41:58.842Z,1.1
2019-01-20T08:43:00.686Z,1.1
2019-01-20T08:44:03.162Z,1
2019-01-20T08:45:04.791Z,0.9
2019-01-20T08:46:06.324Z,1
2019-01-20T08:47:07.773Z,0.9
2019-01-20T08:48:09.393Z,0.9
2019-01-20T08:49:10.958Z,0.9
2019-01-20T08:50:12.512Z,0.9
2019-01-20T08:51:14.048Z,1
2019-01-20T08:52:15.605Z,1.2
2019-01-20T08:53:17.131Z,1.2
2019-01-20T08:54:18.678Z,1.2
2019-01-20T08:55:20.117Z,1.1
2019-01-20T08:56:22.999Z,1
2019-01-20T08:57:25.556Z,2
2019-01-20T08:59:46.557Z,5.8
2019-01-20T09:00:50.229Z,6.9
2019-01-20T09:01:59.428Z,8
2019-01-20T09:03:02.967Z,8.6
2019-01-20T09:04:04.510Z,9
2019-01-20T09:05:06.161Z,8.8
2019-01-20T09:06:10.665Z,9
2019-01-20T09:07:12.209Z,9.2
2019-01-20T09:08:13.854Z,10
2019-01-20T09:09:15.287Z,10.2
2019-01-20T09:10:16.836Z,10.2
2019-01-20T09:11:19.057Z,10.4
2019-01-20T09:12:23.667Z,10.4
2019-01-20T09:13:27.289Z,11
2019-01-20T09:14:28.740Z,10.9
2019-01-20T09:15:30.313Z,10.8
2019-01-20T09:16:31.829Z,11.1
2019-01-20T09:17:33.376Z,11.2
2019-01-20T09:18:34.906Z,11
2019-01-20T09:19:36.464Z,11.2
2019-01-20T09:20:38.062Z,11.6
2019-01-20T09:21:39.547Z,11.6
2019-01-20T09:22:43.273Z,11.6
2019-01-20T09:23:44.761Z,11.7
2019-01-20T09:24:46.226Z,11.9
2019-01-20T09:25:47.761Z,11.8
2019-01-20T09:26:49.280Z,12
2019-01-20T09:27:52.250Z,12
2019-01-20T09:28:53.763Z,12.3
2019-01-20T09:29:56.415Z,12.3
2019-01-20T09:30:57.940Z,12.5
2019-01-20T09:31:59.585Z,12.5
2019-01-20T09:33:01.125Z,12.6
2019-01-20T09:34:02.824Z,12.5
2019-01-20T09:35:05.321Z,12.5
2019-01-20T09:36:07.097Z,12.3
2019-01-20T09:37:08.535Z,12
2019-01-20T09:38:10.067Z,12.1
2019-01-20T09:39:12.651Z,12
2019-01-20T09:40:14.076Z,12.5
2019-01-20T09:41:15.644Z,12.6
2019-01-20T09:42:19.457Z,12.5
2019-01-20T09:43:20.957Z,12.6
2019-01-20T09:44:22.607Z,12.7
2019-01-20T09:45:24.130Z,12.9
2019-01-20T09:46:25.894Z,13.1
2019-01-20T09:47:28.319Z,13
2019-01-20T09:48:29.743Z,13.2
2019-01-20T09:49:31.301Z,13.5
2019-01-20T09:50:32.775Z,13.5
2019-01-20T09:51:41.357Z,13.6
2019-01-20T09:52:45.489Z,13.7
2019-01-20T09:53:49.182Z,13.8
2019-01-20T09:54:50.603Z,14.1
2019-01-20T09:55:52.349Z,14.2
2019-01-20T09:56:54.123Z,14.5
2019-01-20T09:57:55.666Z,14.7
2019-01-20T09:58:57.231Z,14.8
2019-01-20T10:00:01.063Z,15
2019-01-20T10:01:02.557Z,15.2
2019-01-20T10:02:06.759Z,15.4
2019-01-20T10:03:08.196Z,15.4
2019-01-20T10:04:18.018Z,15.8
2019-01-20T10:05:19.577Z,15.9
2019-01-20T10:06:21.122Z,15.9
2019-01-20T10:07:22.615Z,15.8
2019-01-20T10:08:24.726Z,15.8
2019-01-20T10:09:37.010Z,15.7
2019-01-20T10:10:38.550Z,15.7
2019-01-20T10:11:40.089Z,15.7
2019-01-20T10:12:41.569Z,15.9
2019-01-20T10:13:43.076Z,16
2019-01-20T10:14:45.640Z,16.5
2019-01-20T10:15:47.317Z,16.7
2019-01-20T10:16:49.344Z,17
2019-01-20T10:17:52.169Z,17.2
2019-01-20T10:18:53.961Z,17.1
2019-01-20T10:19:55.513Z,17.2
2019-01-20T10:20:57.304Z,17.1
2019-01-20T10:21:58.797Z,17
2019-01-20T10:23:00.354Z,17.1
2019-01-20T10:24:04.545Z,17.4
2019-01-20T10:25:06.068Z,17.5
2019-01-20T10:26:07.646Z,17.8
2019-01-20T10:27:10.504Z,17.7
2019-01-20T10:28:11.999Z,17.5
2019-01-20T10:29:13.801Z,17.1
2019-01-20T10:30:15.412Z,16.9
2019-01-20T10:31:28.117Z,16.6
2019-01-20T10:32:31.479Z,16.4
2019-01-20T10:33:34.916Z,16.3
2019-01-20T10:34:39.275Z,16.2
2019-01-20T10:35:41.477Z,16.1
2019-01-20T10:36:45.415Z,16
2019-01-20T10:37:48.354Z,15.9
2019-01-20T10:38:50.001Z,15.8
2019-01-20T10:39:51.560Z,15.8
2019-01-20T10:40:53.455Z,15.8
2019-01-20T10:41:57.293Z,15.7
2019-01-20T10:42:59.038Z,15.8
2019-01-20T10:44:02.229Z,15.7
2019-01-20T10:45:03.977Z,15.8
2019-01-20T10:46:06.952Z,15.8
2019-01-20T10:47:09.530Z,15.8
2019-01-20T10:48:11.052Z,15.9
2019-01-20T10:49:12.806Z,16
2019-01-20T10:50:15.680Z,16.2
2019-01-20T10:51:17.226Z,16.3
2019-01-20T10:52:18.873Z,16.4
2019-01-20T10:53:20.419Z,16.4
2019-01-20T10:54:22.068Z,16.6
2019-01-20T10:55:23.573Z,16.5
2019-01-20T10:56:27.404Z,16.6
2019-01-20T10:57:29.045Z,16.6
2019-01-20T10:58:31.706Z,16.7
2019-01-20T10:59:34.382Z,16.7
2019-01-20T11:00:38.380Z,16.6
2019-01-20T11:01:50.132Z,16.7
2019-01-20T11:02:54.661Z,16.8
2019-01-20T11:03:58.487Z,16.9
2019-01-20T11:05:00.049Z,16.8
2019-01-20T11:06:01.664Z,16.8
2019-01-20T11:07:03.629Z,16.8
2019-01-20T11:08:06.481Z,16.8
2019-01-20T11:09:10.788Z,16.7
2019-01-20T11:10:22.851Z,16.8
2019-01-20T11:11:24.588Z,16.8
2019-01-20T11:12:26.012Z,16.7
2019-01-20T11:13:27.516Z,16.8
2019-01-20T11:14:31.235Z,16.7
2019-01-20T11:15:34.078Z,16.7
2019-01-20T11:16:35.724Z,16.7
2019-01-20T11:17:38.408Z,16.7
2019-01-20T11:18:42.389Z,16.6
2019-01-20T11:19:43.988Z,16.6
2019-01-20T11:20:45.534Z,16.6
2019-01-20T11:21:47.146Z,16.5
2019-01-20T11:22:48.727Z,16.5
2019-01-20T11:23:50.525Z,16.4
2019-01-20T11:24:52.074Z,16.4
2019-01-20T11:25:53.608Z,16.4
2019-01-20T11:26:55.245Z,16.5
2019-01-20T11:27:56.802Z,16.6
2019-01-20T11:28:58.332Z,16.6
2019-01-20T11:29:59.877Z,16.5
2019-01-20T11:31:02.661Z,16.6
2019-01-20T11:32:14.807Z,16.6
2019-01-20T11:33:16.603Z,16.7
2019-01-20T11:34:20.533Z,16.6
2019-01-20T11:35:22.800Z,16.6
2019-01-20T11:36:24.775Z,16.6
2019-01-20T11:37:26.200Z,16.5
2019-01-20T11:38:28.958Z,16.6
2019-01-20T11:39:30.866Z,16.7
2019-01-20T11:40:33.548Z,16.7
2019-01-20T11:41:35.075Z,16.7
2019-01-20T11:42:41.237Z,16.7
2019-01-20T11:43:43.076Z,16.6
2019-01-20T11:44:44.737Z,16.7
2019-01-20T11:45:46.361Z,16.7
2019-01-20T11:46:48.021Z,16.7
2019-01-20T11:47:49.658Z,16.8
2019-01-20T11:48:51.409Z,16.8
2019-01-20T11:49:52.847Z,16.8
2019-01-20T11:50:54.416Z,16.8
2019-01-20T11:51:56.400Z,16.9
2019-01-20T11:52:58.551Z,17
2019-01-20T11:54:00.139Z,16.8
2019-01-20T11:55:01.697Z,16.9
2019-01-20T11:56:10.318Z,16.8
2019-01-20T11:57:14.347Z,16.8
2019-01-20T11:58:15.840Z,16.8
2019-01-20T11:59:17.379Z,16.9
2019-01-20T12:00:21.183Z,17
2019-01-20T12:01:22.756Z,17
2019-01-20T12:02:24.273Z,17
2019-01-20T12:03:25.812Z,17
2019-01-20T12:04:31.253Z,16.9
2019-01-20T12:05:33.960Z,16.9
2019-01-20T12:06:35.774Z,16.9
2019-01-20T12:07:38.425Z,16.7
2019-01-20T12:08:40.084Z,16.7
2019-01-20T12:09:41.769Z,16.8
2019-01-20T12:10:43.264Z,16.8
2019-01-20T12:11:44.811Z,16.8
2019-01-20T12:12:46.573Z,16.9
2019-01-20T12:13:47.982Z,16.9
2019-01-20T12:14:50.291Z,16.8
2019-01-20T12:15:52.036Z,16.9
2019-01-20T12:16:53.538Z,16.8
2019-01-20T12:17:55.020Z,16.8
2019-01-20T12:18:56.518Z,16.6
2019-01-20T12:19:58.326Z,16.8
2019-01-20T12:20:59.827Z,16.7
2019-01-20T12:22:01.356Z,16.8
2019-01-20T12:23:03.262Z,16.8
2019-01-20T12:24:04.958Z,16.9
2019-01-20T12:25:06.505Z,16.9
2019-01-20T12:26:10.397Z,16.9
2019-01-20T12:27:12.038Z,17
2019-01-20T12:28:13.950Z,17.1
2019-01-20T12:29:16.769Z,17
2019-01-20T12:30:18.412Z,17.1
2019-01-20T12:31:21.189Z,17
2019-01-20T12:32:22.625Z,17
2019-01-20T12:33:24.274Z,17
2019-01-20T12:34:25.816Z,17
2019-01-20T12:35:27.356Z,17
2019-01-20T12:36:28.895Z,17
2019-01-20T12:37:30.486Z,16.9
2019-01-20T12:38:34.554Z,17
2019-01-20T12:39:36.187Z,16.9
2019-01-20T12:40:39.573Z,16.9
2019-01-20T12:41:45.236Z,16.9
2019-01-20T12:42:47.623Z,17
2019-01-20T12:43:49.703Z,17
2019-01-20T12:44:51.376Z,17.1
2019-01-20T12:45:52.971Z,17
2019-01-20T12:46:54.571Z,17
2019-01-20T12:47:56.273Z,17
2019-01-20T12:48:57.849Z,17
2019-01-20T12:49:59.387Z,16.9
2019-01-20T12:51:01.449Z,16.9
2019-01-20T12:52:02.989Z,16.9
2019-01-20T12:53:05.766Z,17
2019-01-20T12:54:07.310Z,16.9
2019-01-20T12:55:08.748Z,16.8
2019-01-20T12:56:10.399Z,16.8
2019-01-20T12:57:14.097Z,16.8
2019-01-20T12:58:18.625Z,16.9
2019-01-20T12:59:20.148Z,17
2019-01-20T13:00:21.676Z,16.9
2019-01-20T13:01:23.330Z,16.9
2019-01-20T13:02:27.656Z,16.8
2019-01-20T13:03:29.389Z,16.9
2019-01-20T13:04:31.029Z,16.9
2019-01-20T13:05:39.025Z,16.9
2019-01-20T13:06:40.610Z,16.7
2019-01-20T13:07:42.322Z,16.9
2019-01-20T13:08:43.986Z,16.8
2019-01-20T13:09:45.522Z,16.8
2019-01-20T13:10:47.138Z,16.8
2019-01-20T13:11:51.666Z,16.7
2019-01-20T13:12:55.266Z,16.8
2019-01-20T13:14:04.360Z,16.8
2019-01-20T13:15:07.049Z,16.8
2019-01-20T13:16:08.596Z,16.9
2019-01-20T13:17:11.580Z,16.8
2019-01-20T13:18:13.202Z,16.8
2019-01-20T13:19:14.740Z,16.7
2019-01-20T13:20:19.573Z,16.7
2019-01-20T13:21:21.226Z,16.7
2019-01-20T13:22:22.959Z,16.7
2019-01-20T13:23:25.324Z,16.7
2019-01-20T13:24:26.780Z,16.7
2019-01-20T13:25:29.948Z,16.5
2019-01-20T13:26:31.796Z,16.5
2019-01-20T13:27:35.367Z,16.6
2019-01-20T13:28:36.842Z,16.7
2019-01-20T13:29:38.392Z,16.7
2019-01-20T13:30:42.470Z,16.7
2019-01-20T13:31:44.144Z,16.8
2019-01-20T13:32:45.606Z,16.8
2019-01-20T13:33:47.110Z,16.8
2019-01-20T13:34:48.756Z,16.8
2019-01-20T13:35:50.408Z,16.7
2019-01-20T13:36:55.618Z,16.7
2019-01-20T13:37:59.735Z,16.7
2019-01-20T13:39:01.485Z,16.7
2019-01-20T13:40:04.198Z,16.7
2019-01-20T13:41:09.282Z,16.7
2019-01-20T13:42:11.382Z,16.5
2019-01-20T13:43:14.147Z,16.7
2019-01-20T13:44:18.819Z,16.7
2019-01-20T13:45:20.345Z,17
2019-01-20T13:46:24.304Z,17.2
2019-01-20T13:47:25.897Z,17.2
2019-01-20T13:48:27.692Z,17.2
2019-01-20T13:49:31.113Z,17
2019-01-20T13:51:53.273Z,16.9
2019-01-20T13:52:59.563Z,16.9
2019-01-20T13:54:02.991Z,16.8
2019-01-20T13:55:08.708Z,16.8
2019-01-20T13:56:10.397Z,16.7
2019-01-20T13:57:17.213Z,16.6
2019-01-20T13:58:41.045Z,16.7
2019-01-20T13:59:42.578Z,16.8
2019-01-20T14:00:54.541Z,16.8
2019-01-20T14:01:58.436Z,17
2019-01-20T14:03:00.101Z,17.1
2019-01-20T14:04:02.771Z,17.2
2019-01-20T14:05:04.213Z,17.5
2019-01-20T14:06:06.778Z,17.6
2019-01-20T14:07:10.925Z,17.5
2019-01-20T14:08:13.443Z,17.6
2019-01-20T14:09:17.857Z,17.8
2019-01-20T14:10:19.599Z,17.9
2019-01-20T14:11:23.530Z,18
2019-01-20T14:12:27.352Z,18.1